Time;durP1;ratioP1;P1;durP2;ratioP2;P2;SDS_P1;SDS_P2;PMS_P1;PMS_P2;Temp;Humidity;BMP_temperature;BMP_pressure;BME280_temperature;BME280_humidity;BME280_pressure;Samples;Min_cycle;Max_cycle;Signal;HPM_P1;HPM_P2
2022/01/19 00:00:28;;;;;;;18.58;4.65;;;;;;;7.41;98.54;102529.09;4953721;29;20134;-71
2022/01/19 00:02:56;;;;;;;8.75;3.38;;;;;;;7.37;98.67;102525.41;4955014;28;20121;-71
2022/01/19 00:05:22;;;;;;;8.95;3.72;;;;;;;7.34;99.07;102509.09;4937143;28;20066;-71
2022/01/19 00:07:49;;;;;;;10.60;4.25;;;;;;;7.27;98.88;102517.47;4947601;28;20043;-71
2022/01/19 00:10:19;;;;;;;8.27;2.78;;;;;;;7.26;99.35;102505.97;4954034;29;20058;-71
2022/01/19 00:12:45;;;;;;;7.40;3.25;;;;;;;7.28;99.33;102511.03;4953109;28;20290;-71
2022/01/19 00:15:11;;;;;;;8.77;3.35;;;;;;;7.24;99.33;102508.13;4957759;28;20062;-71
2022/01/19 00:17:37;;;;;;;8.70;3.45;;;;;;;7.24;99.56;102510.81;4954304;28;20508;-71
2022/01/19 00:20:04;;;;;;;8.95;3.63;;;;;;;7.18;99.09;102506.59;4952689;29;20122;-71
2022/01/19 00:22:29;;;;;;;9.43;3.63;;;;;;;7.19;99.12;102504.72;4959684;28;20078;-71
2022/01/19 00:24:54;;;;;;;9.20;4.22;;;;;;;7.34;98.69;102499.16;4959185;28;20117;-71
2022/01/19 00:27:20;;;;;;;7.80;2.90;;;;;;;7.44;97.16;102500.91;4955110;28;20042;-71
2022/01/19 00:29:46;;;;;;;11.65;3.65;;;;;;;7.46;97.28;102504.91;4953362;29;20037;-71
2022/01/19 00:32:11;;;;;;;8.85;3.45;;;;;;;7.13;99.00;102495.94;4953707;28;20043;-71
2022/01/19 00:34:37;;;;;;;7.22;2.70;;;;;;;7.25;98.54;102479.47;4959015;28;20027;-71
2022/01/19 00:37:03;;;;;;;9.27;3.38;;;;;;;7.17;99.11;102480.09;4954707;28;20039;-71
2022/01/19 00:39:31;;;;;;;9.95;4.07;;;;;;;7.28;98.24;102470.84;4960481;28;20043;-71
2022/01/19 00:41:57;;;;;;;5.68;2.20;;;;;;;7.29;98.59;102472.44;4952936;29;20035;-71
2022/01/19 00:44:23;;;;;;;8.68;3.95;;;;;;;7.26;98.39;102473.00;4953294;29;20050;-71
2022/01/19 00:46:48;;;;;;;7.22;3.15;;;;;;;7.25;97.90;102476.78;4950465;29;20620;-71
2022/01/19 00:49:14;;;;;;;8.60;3.28;;;;;;;7.41;97.29;102480.06;4953133;28;20076;-71
2022/01/19 00:51:39;;;;;;;8.02;2.67;;;;;;;7.30;96.93;102468.66;4952297;28;20050;-71
2022/01/19 00:54:05;;;;;;;9.32;2.80;;;;;;;7.17;97.97;102469.38;4953264;29;20373;-71
2022/01/19 00:56:30;;;;;;;6.95;2.80;;;;;;;7.13;98.25;102473.72;4954023;28;20161;-71
2022/01/19 00:58:56;;;;;;;6.25;2.92;;;;;;;7.23;97.64;102463.69;4952922;29;20408;-71
2022/01/19 01:01:21;;;;;;;10.07;3.33;;;;;;;7.24;97.33;102467.94;4952348;29;20614;-71
2022/01/19 01:03:46;;;;;;;9.63;3.78;;;;;;;7.50;96.03;102481.00;4943284;28;20051;-71
2022/01/19 01:06:15;;;;;;;8.13;3.17;;;;;;;7.30;96.83;102484.75;4950306;28;20042;-71
2022/01/19 01:08:40;;;;;;;9.25;3.75;;;;;;;7.17;97.70;102480.91;4955237;28;20493;-71
2022/01/19 01:11:08;;;;;;;7.57;3.90;;;;;;;7.38;96.69;102475.25;4953010;28;20078;-71
2022/01/19 01:16:31;;;;;;;9.75;2.70;;;;;;;7.25;97.34;102469.53;4958486;28;20404;-71
2022/01/19 01:18:58;;;;;;;6.68;2.60;;;;;;;7.22;97.13;102466.63;4955335;28;20073;-71
2022/01/19 01:21:24;;;;;;;5.45;2.63;;;;;;;7.24;96.71;102451.88;4959250;28;20066;-71
2022/01/19 01:23:52;;;;;;;7.80;3.00;;;;;;;7.42;95.78;102454.84;4952417;28;20427;-71
2022/01/19 01:26:17;;;;;;;9.52;3.92;;;;;;;7.30;96.44;102439.19;4952171;28;20035;-71
2022/01/19 01:28:43;;;;;;;6.65;3.00;;;;;;;7.06;98.11;102436.56;4943874;28;20483;-71
2022/01/19 01:31:09;;;;;;;12.02;4.25;;;;;;;6.93;98.15;102431.13;4952223;29;20019;-71
2022/01/19 01:33:38;;;;;;;7.78;3.22;;;;;;;6.75;99.67;102427.31;4951663;28;20054;-71
2022/01/19 01:36:04;;;;;;;7.53;3.60;;;;;;;6.82;99.10;102413.56;4966877;28;20026;-71
2022/01/19 01:38:30;;;;;;;12.75;4.15;;;;;;;6.82;99.38;102405.53;4960739;28;20043;-71
2022/01/19 01:40:56;;;;;;;8.02;3.42;;;;;;;6.98;98.82;102391.69;4935912;29;20034;-71
2022/01/19 01:43:22;;;;;;;8.43;2.83;;;;;;;7.00;98.63;102394.88;4939363;28;20040;-71
2022/01/19 01:45:52;;;;;;;8.65;2.78;;;;;;;6.97;98.73;102384.72;4951090;28;20046;-71
2022/01/19 01:48:21;;;;;;;9.23;3.30;;;;;;;7.01;99.33;102380.38;4951926;29;20031;-71
2022/01/19 01:53:49;;;;;;;6.30;2.92;;;;;;;7.06;99.09;102352.75;4957830;28;20453;-71
2022/01/19 01:56:16;;;;;;;7.32;3.92;;;;;;;6.87;99.25;102336.63;4967449;28;20070;-71
2022/01/19 01:58:45;;;;;;;12.95;3.72;;;;;;;6.80;99.48;102319.34;4960941;28;20031;-71
2022/01/19 02:01:40;;;;;;;8.88;3.80;;;;;;;6.75;99.99;102317.53;4955372;28;20093;-71
2022/01/19 02:04:12;;;;;;;7.10;3.60;;;;;;;6.80;99.97;102316.66;4966679;28;20594;-71
2022/01/19 02:07:15;;;;;;;8.88;3.83;;;;;;;6.93;98.96;102322.09;4966951;28;20026;-71
2022/01/19 02:09:51;;;;;;;10.27;3.45;;;;;;;6.92;98.87;102331.22;4949836;29;20395;-71
2022/01/19 02:25:56;;;;;;;6.72;2.80;;;;;;;6.88;97.73;102298.09;4969026;28;20419;-72
2022/01/19 02:31:45;;;;;;;8.27;3.08;;;;;;;6.82;98.93;102266.31;4949669;28;20027;-72
2022/01/19 02:42:11;;;;;;;12.05;2.75;;;;;;;6.80;97.91;102237.16;4950711;28;20035;-72
2022/01/19 02:49:52;;;;;;;8.82;3.38;;;;;;;6.62;98.97;102200.47;4953329;29;20035;-71
2022/01/19 02:52:19;;;;;;;12.70;3.17;;;;;;;6.55;99.38;102204.59;4936090;29;20083;-71
2022/01/19 02:54:46;;;;;;;10.88;3.40;;;;;;;6.50;99.55;102215.38;4963093;28;20510;-71
2022/01/19 02:57:13;;;;;;;11.43;3.75;;;;;;;6.62;98.62;102195.13;4957751;28;20137;-73
2022/01/19 03:10:18;;;;;;;10.48;2.92;;;;;;;6.47;100.00;102160.56;4952495;29;20043;-71
2022/01/19 03:12:43;;;;;;;6.13;2.72;;;;;;;6.53;99.49;102158.59;4942794;28;20445;-71
2022/01/19 03:15:10;;;;;;;6.47;2.65;;;;;;;6.55;99.81;102145.72;4951375;29;20066;-71
2022/01/19 03:17:36;;;;;;;8.82;2.97;;;;;;;6.52;99.53;102138.28;4951250;29;20039;-71
2022/01/19 03:20:04;;;;;;;7.60;2.10;;;;;;;6.45;100.00;102127.13;4946133;29;20054;-71
2022/01/19 03:22:36;;;;;;;10.32;3.10;;;;;;;6.52;99.68;102125.72;4961057;28;20081;-71
2022/01/19 03:25:05;;;;;;;10.18;3.85;;;;;;;6.60;98.75;102124.25;4971175;28;20414;-71
2022/01/19 03:27:31;;;;;;;10.07;3.50;;;;;;;6.43;99.60;102122.09;4954835;28;20069;-71
2022/01/19 03:29:57;;;;;;;9.85;2.88;;;;;;;6.45;100.00;102130.63;4955212;28;20050;-71
2022/01/19 03:32:24;;;;;;;8.98;2.80;;;;;;;6.41;100.00;102121.56;4952933;28;20130;-71
2022/01/19 03:34:49;;;;;;;7.97;3.25;;;;;;;6.34;100.00;102118.47;4949489;28;20089;-71
2022/01/19 03:37:15;;;;;;;9.80;3.38;;;;;;;6.42;100.00;102100.97;4963446;28;20043;-72
2022/01/19 03:39:40;;;;;;;13.55;2.25;;;;;;;6.41;100.00;102086.03;4957462;28;20065;-71
2022/01/19 03:42:06;;;;;;;9.13;3.15;;;;;;;6.28;100.00;102084.88;4950547;28;20396;-72
2022/01/19 03:44:32;;;;;;;11.20;3.15;;;;;;;6.38;99.50;102076.69;4954171;28;20039;-72
2022/01/19 03:47:00;;;;;;;6.03;2.00;;;;;;;6.31;100.00;102062.88;4960468;28;20046;-71
2022/01/19 03:49:32;;;;;;;9.00;3.10;;;;;;;6.46;100.00;102061.84;4953075;28;20023;-71
2022/01/19 03:52:02;;;;;;;10.30;3.10;;;;;;;6.39;100.00;102071.03;4953002;28;20042;-71
2022/01/19 03:54:51;;;;;;;7.20;2.45;;;;;;;6.38;100.00;102066.78;4963227;28;20106;-72
2022/01/19 03:57:17;;;;;;;6.43;2.35;;;;;;;6.33;100.00;102074.06;4967714;28;20046;-71
2022/01/19 03:59:42;;;;;;;4.95;1.90;;;;;;;6.36;100.00;102076.19;4949713;29;20032;-71
2022/01/19 04:02:10;;;;;;;4.90;2.17;;;;;;;6.22;100.00;102072.66;4962961;28;20027;-71
2022/01/19 04:07:10;;;;;;;10.15;3.60;;;;;;;6.20;100.00;102064.13;4953741;28;20074;-71
2022/01/19 04:09:43;;;;;;;9.55;2.53;;;;;;;6.13;100.00;102050.31;4964819;28;20038;-71
2022/01/19 04:12:17;;;;;;;7.75;2.92;;;;;;;6.13;100.00;102037.75;4952924;28;20039;-72
2022/01/19 04:14:43;;;;;;;8.60;2.88;;;;;;;6.10;100.00;102029.50;4949690;28;20039;-71
2022/01/19 04:17:11;;;;;;;17.35;3.67;;;;;;;6.13;100.00;102040.44;4956472;28;20078;-71
2022/01/19 04:22:15;;;;;;;7.28;2.70;;;;;;;6.25;100.00;102029.28;4958174;28;20039;-71
2022/01/19 04:24:42;;;;;;;9.32;3.13;;;;;;;6.25;100.00;102022.03;4964870;28;20805;-71
2022/01/19 04:30:17;;;;;;;6.72;2.70;;;;;;;6.26;100.00;102004.13;4952535;28;20031;-71
2022/01/19 04:35:30;;;;;;;6.78;2.65;;;;;;;6.12;100.00;102017.44;4962368;28;20047;-71
2022/01/19 04:54:09;;;;;;;8.68;3.35;;;;;;;6.09;100.00;102003.88;4944963;29;20062;-71
2022/01/19 05:03:14;;;;;;;5.65;2.35;;;;;;;6.25;100.00;101959.75;4960141;28;20053;-71
2022/01/19 05:06:01;;;;;;;5.10;2.63;;;;;;;6.17;100.00;101968.44;4944403;29;20043;-71
2022/01/19 05:13:56;;;;;;;7.47;3.08;;;;;;;6.18;100.00;101965.47;4959158;28;20111;-71
2022/01/19 05:16:28;;;;;;;6.43;2.28;;;;;;;6.24;100.00;101960.81;4957892;28;20369;-72
2022/01/19 05:18:54;;;;;;;6.78;2.72;;;;;;;6.20;100.00;101967.84;4949669;28;20079;-71
2022/01/19 05:21:20;;;;;;;4.90;2.33;;;;;;;6.19;100.00;101971.63;4948170;28;20047;-71
2022/01/19 05:24:07;;;;;;;13.95;3.58;;;;;;;6.14;100.00;101974.34;4962107;28;20077;-72
2022/01/19 05:26:36;;;;;;;11.98;2.92;;;;;;;6.09;100.00;101956.53;4972453;28;20035;-71
2022/01/19 05:29:02;;;;;;;5.78;1.75;;;;;;;6.13;100.00;101960.22;4946718;28;20034;-71
2022/01/19 05:31:28;;;;;;;7.53;3.00;;;;;;;6.19;100.00;101942.22;4955900;28;20097;-71
2022/01/19 05:33:54;;;;;;;5.13;2.38;;;;;;;6.20;100.00;101941.09;4947544;29;20031;-71
2022/01/19 05:36:20;;;;;;;4.45;2.50;;;;;;;6.17;100.00;101937.16;4942890;29;20039;-72
2022/01/19 05:39:18;;;;;;;11.40;3.10;;;;;;;6.02;100.00;101926.69;4957438;28;20043;-71
2022/01/19 05:41:57;;;;;;;7.18;3.08;;;;;;;6.11;100.00;101930.31;4947324;28;20031;-71
2022/01/19 05:44:22;;;;;;;10.65;3.00;;;;;;;6.15;100.00;101927.81;4951860;29;20450;-71
2022/01/19 05:46:47;;;;;;;8.73;3.08;;;;;;;6.11;100.00;101906.25;4948880;29;20122;-71
2022/01/19 05:49:13;;;;;;;8.48;2.70;;;;;;;6.08;100.00;101897.97;4949064;28;20055;-71
2022/01/19 05:51:39;;;;;;;5.97;3.10;;;;;;;6.17;100.00;101898.91;4951267;28;20035;-71
2022/01/19 05:54:04;;;;;;;5.50;2.70;;;;;;;6.06;100.00;101881.44;4955532;28;20038;-71
2022/01/19 05:56:30;;;;;;;7.43;3.05;;;;;;;5.97;100.00;101873.31;4962629;28;20046;-71
2022/01/19 05:59:11;;;;;;;15.33;3.53;;;;;;;6.00;100.00;101877.28;4961708;28;20038;-72
2022/01/19 06:01:37;;;;;;;7.97;3.60;;;;;;;5.91;100.00;101863.00;4955424;28;20290;-71
2022/01/19 06:04:03;;;;;;;7.38;3.10;;;;;;;5.91;100.00;101871.00;4957325;28;20141;-71
2022/01/19 06:06:55;;;;;;;7.40;2.75;;;;;;;5.94;100.00;101873.13;4941938;28;20122;-71
2022/01/19 06:09:35;;;;;;;;;;;;;;;5.99;100.00;101867.66;4949586;29;20054;-71
2022/01/19 06:12:12;;;;;;;11.05;3.97;;;;;;;5.91;100.00;101863.00;4942079;28;19914;-72
2022/01/19 06:14:40;;;;;;;6.18;3.22;;;;;;;5.86;100.00;101857.75;4952005;28;20405;-71
2022/01/19 06:17:07;;;;;;;6.28;2.70;;;;;;;5.94;100.00;101860.53;4945895;28;20110;-71
2022/01/19 06:19:33;;;;;;;15.55;4.75;;;;;;;5.97;100.00;101851.13;4956353;28;20530;-72
2022/01/19 06:21:59;;;;;;;10.68;3.65;;;;;;;5.91;100.00;101846.97;4953054;28;20081;-71
2022/01/19 06:24:25;;;;;;;8.52;3.60;;;;;;;5.93;100.00;101842.91;4951306;29;20408;-71
2022/01/19 06:26:51;;;;;;;6.47;3.28;;;;;;;5.93;100.00;101842.13;4948140;28;20027;-71
2022/01/19 06:29:16;;;;;;;8.63;4.05;;;;;;;6.08;100.00;101823.13;4965053;28;20031;-71
2022/01/19 06:31:42;;;;;;;7.72;3.53;;;;;;;6.00;100.00;101831.84;4951128;28;20049;-71
2022/01/19 06:34:11;;;;;;;10.35;4.05;;;;;;;6.06;100.00;101827.97;4950470;29;20038;-71
2022/01/19 06:36:56;;;;;;;10.10;3.58;;;;;;;6.00;100.00;101826.50;4957639;28;20046;-71
2022/01/19 06:39:35;;;;;;;13.13;4.88;;;;;;;6.09;100.00;101838.09;4955481;28;20062;-71
2022/01/19 06:42:05;;;;;;;9.15;4.15;;;;;;;6.17;100.00;101822.16;4934975;28;20050;-71
2022/01/19 06:44:30;;;;;;;11.23;4.03;;;;;;;6.11;100.00;101818.00;4950805;28;20512;-71
2022/01/19 06:46:55;;;;;;;13.98;4.05;;;;;;;6.04;100.00;101817.56;4949893;28;20519;-71
2022/01/19 06:49:21;;;;;;;6.13;3.25;;;;;;;6.13;100.00;101807.81;4948863;28;20054;-72
2022/01/19 06:51:47;;;;;;;8.63;3.50;;;;;;;6.10;100.00;101808.38;4949581;28;20403;-72
2022/01/19 06:54:13;;;;;;;9.88;3.58;;;;;;;6.15;100.00;101799.47;4953789;28;20062;-72
2022/01/19 06:56:39;;;;;;;7.55;3.38;;;;;;;6.17;100.00;101808.00;4950365;28;20035;-72
2022/01/19 06:59:24;;;;;;;15.10;3.45;;;;;;;6.22;100.00;101806.00;4945697;28;20137;-73
2022/01/19 07:02:05;;;;;;;14.18;4.80;;;;;;;6.18;100.00;101798.88;4945076;28;20051;-72
2022/01/19 07:05:00;;;;;;;15.82;4.63;;;;;;;6.10;100.00;101800.34;4950128;28;20117;-73
2022/01/19 07:07:39;;;;;;;9.90;3.88;;;;;;;6.20;100.00;101791.34;4953230;28;20039;-73
2022/01/19 07:10:07;;;;;;;10.50;3.20;;;;;;;6.17;100.00;101790.09;4937835;29;20032;-72
2022/01/19 07:12:33;;;;;;;11.60;4.00;;;;;;;6.24;100.00;101792.34;4949591;28;20407;-73
2022/01/19 07:15:00;;;;;;;17.70;4.65;;;;;;;6.19;100.00;101779.09;4949149;28;20038;-71
2022/01/19 07:17:26;;;;;;;11.43;4.10;;;;;;;6.06;100.00;101783.31;4947228;28;20032;-71
2022/01/19 07:19:52;;;;;;;13.23;4.70;;;;;;;6.13;100.00;101774.91;4942714;29;20157;-72
2022/01/19 07:22:17;;;;;;;15.40;4.50;;;;;;;6.21;100.00;101764.31;4950607;28;20031;-71
2022/01/19 07:24:44;;;;;;;18.50;4.60;;;;;;;6.21;100.00;101771.56;4937673;28;20031;-72
2022/01/19 07:27:10;;;;;;;18.02;5.07;;;;;;;6.19;100.00;101765.72;4951011;28;20126;-72
2022/01/19 07:29:38;;;;;;;7.20;3.67;;;;;;;6.48;100.00;101760.84;4946578;28;20035;-72
2022/01/19 07:32:09;;;;;;;11.15;4.20;;;;;;;6.44;100.00;101778.56;4953163;28;20031;-71
2022/01/19 07:34:35;;;;;;;;;;;;;;;6.35;100.00;101764.28;4938540;28;20023;-72
2022/01/19 07:37:05;;;;;;;14.25;5.47;;;;;;;6.30;100.00;101756.38;4931763;28;20312;-72
2022/01/19 07:39:31;;;;;;;12.65;4.82;;;;;;;6.25;100.00;101740.47;4941612;28;20082;-72
2022/01/19 07:41:56;;;;;;;14.85;5.63;;;;;;;6.28;100.00;101750.53;4951175;28;20126;-72
2022/01/19 07:44:44;;;;;;;16.92;5.25;;;;;;;6.26;100.00;101728.66;4946896;28;20047;-72
2022/01/19 07:47:35;;;;;;;15.00;4.78;;;;;;;6.44;100.00;101737.66;4932505;28;20074;-72
2022/01/19 07:50:10;;;;;;;19.00;5.18;;;;;;;6.49;100.00;101738.31;4948327;28;20031;-72
2022/01/19 07:52:42;;;;;;;15.23;4.70;;;;;;;6.35;100.00;101719.63;4951275;28;20771;-72
2022/01/19 07:55:36;;;;;;;14.68;4.57;;;;;;;6.32;100.00;101720.25;4952542;29;20407;-72
2022/01/19 07:58:21;;;;;;;14.70;4.75;;;;;;;6.38;100.00;101712.91;4946862;28;20047;-72
2022/01/19 08:01:00;;;;;;;12.00;5.57;;;;;;;6.35;100.00;101714.28;4943350;29;20036;-72
2022/01/19 08:03:45;;;;;;;12.50;4.38;;;;;;;6.53;100.00;101704.53;4942427;29;21769;-72
2022/01/19 08:06:18;;;;;;;14.73;5.95;;;;;;;6.54;100.00;101697.31;4941179;28;20032;-72
2022/01/19 08:08:46;;;;;;;19.60;5.45;;;;;;;6.51;100.00;101696.00;4940563;28;20038;-72
2022/01/19 08:11:12;;;;;;;16.75;5.40;;;;;;;6.38;100.00;101686.94;4945836;29;20031;-72
2022/01/19 08:13:42;;;;;;;16.27;4.78;;;;;;;6.42;100.00;101680.97;4948093;28;20031;-72
2022/01/19 08:16:07;;;;;;;24.67;6.57;;;;;;;6.37;100.00;101676.53;4944286;28;20031;-71
2022/01/19 08:18:33;;;;;;;21.73;6.45;;;;;;;6.41;100.00;101677.50;4959341;28;20039;-71
2022/01/19 08:20:59;;;;;;;18.52;5.75;;;;;;;6.44;100.00;101674.25;4952473;28;20039;-71
2022/01/19 08:23:36;;;;;;;22.52;7.15;;;;;;;6.41;100.00;101669.47;4936630;28;20169;-71
2022/01/19 08:26:02;;;;;;;12.30;5.50;;;;;;;6.45;100.00;101659.75;4938694;28;20039;-72
2022/01/19 08:28:29;;;;;;;16.88;5.78;;;;;;;6.44;100.00;101655.53;4952226;28;20435;-72
2022/01/19 08:30:58;;;;;;;21.95;7.82;;;;;;;6.47;100.00;101665.59;4936625;28;20130;-72
2022/01/19 08:33:49;;;;;;;19.08;6.93;;;;;;;6.34;100.00;101653.06;4948164;28;20086;-72
2022/01/19 08:36:21;;;;;;;16.42;5.93;;;;;;;6.53;100.00;101667.06;4949188;28;20038;-72
2022/01/19 08:39:07;;;;;;;18.00;6.10;;;;;;;6.51;100.00;101653.22;4945819;29;20047;-73
2022/01/19 08:41:34;;;;;;;14.57;5.72;;;;;;;6.61;100.00;101641.47;4966165;28;20022;-72
2022/01/19 08:43:59;;;;;;;19.63;5.97;;;;;;;6.52;100.00;101630.72;4952986;28;20126;-72
2022/01/19 08:46:25;;;;;;;24.10;7.32;;;;;;;6.46;100.00;101636.47;4952167;28;20069;-72
2022/01/19 08:49:09;;;;;;;20.17;6.63;;;;;;;6.49;100.00;101638.53;4949719;28;20066;-71
2022/01/19 08:51:54;;;;;;;19.50;5.53;;;;;;;6.56;100.00;101628.22;4953836;28;20037;-71
2022/01/19 08:54:26;;;;;;;15.85;5.22;;;;;;;6.58;100.00;101618.78;4952010;29;20039;-71
2022/01/19 08:57:02;;;;;;;26.48;5.60;;;;;;;6.45;100.00;101608.94;4952663;28;20043;-72
2022/01/19 08:59:28;;;;;;;22.38;5.60;;;;;;;6.52;100.00;101613.88;4951236;28;20043;-71
2022/01/19 09:01:54;;;;;;;18.95;6.85;;;;;;;6.46;100.00;101591.00;4949648;28;20023;-71
2022/01/19 09:04:19;;;;;;;19.48;6.43;;;;;;;6.44;100.00;101593.19;4934260;29;20027;-71
2022/01/19 09:06:45;;;;;;;22.17;6.47;;;;;;;6.45;100.00;101589.41;4943676;29;20054;-71
2022/01/19 09:09:11;;;;;;;16.80;5.93;;;;;;;6.37;100.00;101586.38;4944541;28;20411;-71
2022/01/19 09:11:36;;;;;;;18.38;5.70;;;;;;;6.60;100.00;101589.84;4939619;28;20036;-71
2022/01/19 09:14:03;;;;;;;19.00;5.03;;;;;;;6.66;100.00;101585.94;4947646;28;20045;-71
2022/01/19 09:16:29;;;;;;;21.65;5.78;;;;;;;6.37;100.00;101578.34;4952758;28;20081;-71
2022/01/19 09:18:55;;;;;;;21.58;7.65;;;;;;;6.31;100.00;101592.94;4953101;28;20620;-71
2022/01/19 09:21:20;;;;;;;18.58;5.88;;;;;;;6.39;100.00;101570.03;4952457;28;20043;-71
2022/01/19 09:23:45;;;;;;;18.38;5.57;;;;;;;6.23;100.00;101566.13;4952485;28;20031;-71
2022/01/19 09:26:11;;;;;;;19.38;6.57;;;;;;;6.31;100.00;101557.38;4954092;28;20035;-70
2022/01/19 09:28:39;;;;;;;17.63;4.85;;;;;;;6.37;100.00;101559.63;4955712;28;20400;-71
2022/01/19 09:31:10;;;;;;;19.88;5.82;;;;;;;6.76;100.00;101558.13;4941099;29;20469;-71
2022/01/19 09:33:36;;;;;;;;;;;;;;;6.54;100.00;101558.19;4959857;28;20085;-71
2022/01/19 09:38:31;;;;;;;19.70;6.35;;;;;;;6.67;99.92;101550.06;4952907;28;20043;-71
2022/01/19 09:40:57;;;;;;;13.48;4.20;;;;;;;6.44;100.00;101553.06;4954317;28;20038;-73
2022/01/19 09:43:23;;;;;;;10.27;3.55;;;;;;;6.58;100.00;101546.53;4952353;28;20046;-72
2022/01/19 09:45:54;;;;;;;14.43;5.55;;;;;;;6.73;99.70;101542.72;4951753;28;20408;-72
2022/01/19 09:48:20;;;;;;;15.00;5.30;;;;;;;6.66;98.96;101540.44;4946955;28;20039;-72
2022/01/19 09:50:46;;;;;;;21.33;7.35;;;;;;;6.54;100.00;101536.78;4953897;28;20161;-72
2022/01/19 09:53:11;;;;;;;26.05;6.03;;;;;;;6.54;100.00;101528.75;4924416;28;20039;-72
2022/01/19 09:55:38;;;;;;;15.30;5.07;;;;;;;6.60;100.00;101524.84;4949549;28;20496;-72
2022/01/19 09:58:04;;;;;;;16.90;6.47;;;;;;;6.64;98.62;101528.50;4950497;28;20042;-72
2022/01/19 10:00:30;;;;;;;15.02;5.55;;;;;;;6.49;100.00;101520.81;4950609;28;20093;-72
2022/01/19 10:03:17;;;;;;;15.20;6.28;;;;;;;6.46;100.00;101511.56;4948571;28;20043;-71
2022/01/19 10:06:03;;;;;;;20.55;6.88;;;;;;;6.34;100.00;101511.31;4953872;28;20047;-72
2022/01/19 10:08:48;;;;;;;20.42;5.90;;;;;;;6.41;100.00;101506.31;4950291;29;20508;-72
2022/01/19 10:17:08;;;;;;;18.13;6.22;;;;;;;6.52;99.97;101494.28;4939440;29;20079;-72
2022/01/19 10:19:49;;;;;;;17.95;5.93;;;;;;;6.52;99.85;101483.56;4934146;28;20039;-72
2022/01/19 10:22:17;;;;;;;15.57;4.63;;;;;;;6.62;98.92;101475.25;4953264;28;20098;-72
2022/01/19 10:24:50;;;;;;;13.98;6.20;;;;;;;6.53;98.80;101469.09;4950114;28;20305;-72
2022/01/19 10:27:38;;;;;;;23.10;7.75;;;;;;;6.44;100.00;101468.25;4946572;29;20527;-72
2022/01/19 10:30:03;;;;;;;26.70;6.40;;;;;;;6.49;100.00;101459.31;4947527;28;20035;-72
2022/01/19 10:32:35;;;;;;;14.73;5.63;;;;;;;6.28;100.00;101446.47;4953459;28;20114;-72
2022/01/19 10:35:26;;;;;;;22.73;5.93;;;;;;;6.35;100.00;101449.47;4947229;28;20106;-72
2022/01/19 10:38:29;;;;;;;18.40;6.03;;;;;;;6.50;100.00;101442.16;4950718;28;20057;-72
2022/01/19 10:40:54;;;;;;;21.38;6.20;;;;;;;6.47;100.00;101437.41;4939805;29;20378;-72
2022/01/19 10:43:51;;;;;;;20.40;7.05;;;;;;;6.36;100.00;101435.03;4951424;29;20043;-72
2022/01/19 10:46:16;;;;;;;10.63;4.20;;;;;;;6.66;100.00;101430.75;4950975;28;20093;-72
2022/01/19 10:48:43;;;;;;;15.15;6.47;;;;;;;6.58;99.39;101428.03;4950314;28;20491;-72
2022/01/19 10:51:11;;;;;;;18.13;6.40;;;;;;;6.43;99.56;101410.50;4950698;28;20513;-72
2022/01/19 10:53:39;;;;;;;20.88;6.57;;;;;;;6.46;100.00;101414.44;4950528;28;20451;-72
2022/01/19 10:56:05;;;;;;;15.43;6.35;;;;;;;6.38;100.00;101411.44;4949863;28;20055;-72
2022/01/19 10:58:32;;;;;;;16.95;6.00;;;;;;;6.45;100.00;101410.97;4951432;28;20114;-72
2022/01/19 11:00:58;;;;;;;16.50;6.10;;;;;;;6.33;99.76;101400.06;4953271;28;20035;-73
2022/01/19 11:03:27;;;;;;;13.00;4.78;;;;;;;6.28;100.00;101395.66;4932769;28;20051;-72
2022/01/19 11:06:00;;;;;;;10.90;4.90;;;;;;;6.62;99.14;101392.31;4959669;28;20097;-73
2022/01/19 11:08:28;;;;;;;17.75;6.45;;;;;;;6.59;98.85;101397.50;4951517;28;20114;-73
2022/01/19 11:10:56;;;;;;;21.55;6.32;;;;;;;6.48;99.00;101406.91;4962124;28;20062;-72
2022/01/19 11:13:29;;;;;;;22.38;5.68;;;;;;;6.49;98.59;101393.22;4952251;28;20039;-72
2022/01/19 11:15:56;;;;;;;12.38;4.55;;;;;;;6.48;98.51;101375.59;4954034;28;20027;-72
2022/01/19 11:18:29;;;;;;;15.60;5.03;;;;;;;6.31;98.85;101368.28;4953039;28;20033;-72
2022/01/19 11:20:57;;;;;;;15.40;5.95;;;;;;;6.08;99.15;101357.94;4953803;28;20059;-71
2022/01/19 11:23:41;;;;;;;12.05;4.50;;;;;;;6.01;100.00;101350.38;4960059;28;20442;-73
2022/01/19 11:26:11;;;;;;;15.82;5.53;;;;;;;6.09;100.00;101354.97;4953718;29;20408;-72
2022/01/19 11:28:46;;;;;;;10.93;5.07;;;;;;;6.25;99.89;101355.38;4952589;28;20063;-72
2022/01/19 11:31:19;;;;;;;14.57;4.90;;;;;;;6.27;99.40;101343.25;4945533;28;20039;-71
2022/01/19 11:33:55;;;;;;;16.60;5.28;;;;;;;6.13;99.12;101341.78;4957425;28;20046;-72
2022/01/19 11:36:31;;;;;;;19.52;5.00;;;;;;;6.20;99.07;101332.22;4952494;28;20030;-72
2022/01/19 11:39:10;;;;;;;17.77;6.03;;;;;;;6.07;98.73;101327.75;4954303;28;20121;-72
2022/01/19 11:41:46;;;;;;;16.17;5.93;;;;;;;5.99;99.80;101333.84;4962358;28;20054;-72
2022/01/19 11:44:20;;;;;;;13.20;5.05;;;;;;;6.01;99.44;101312.94;4947221;29;20039;-72
2022/01/19 11:46:48;;;;;;;8.43;3.58;;;;;;;6.10;99.10;101296.94;4950968;29;20032;-72
2022/01/19 11:49:17;;;;;;;12.60;4.25;;;;;;;5.98;99.66;101288.72;4946968;28;20046;-72
2022/01/19 11:51:53;;;;;;;12.50;5.53;;;;;;;5.98;100.00;101289.50;4962872;28;20091;-72
2022/01/19 11:54:30;;;;;;;8.05;3.90;;;;;;;5.97;99.76;101284.47;4953977;28;20035;-72
2022/01/19 11:56:59;;;;;;;8.38;4.30;;;;;;;6.11;98.46;101271.78;4953629;29;20035;-72
2022/01/19 11:59:44;;;;;;;13.70;5.25;;;;;;;6.08;99.10;101265.16;4947581;28;20035;-72
2022/01/19 12:02:26;;;;;;;12.05;4.93;;;;;;;6.21;97.86;101263.50;4942251;28;20058;-71
2022/01/19 12:04:54;;;;;;;15.23;4.75;;;;;;;5.97;98.87;101249.72;4944928;28;20535;-71
2022/01/19 12:07:39;;;;;;;13.10;5.55;;;;;;;5.82;100.00;101223.38;4944252;28;20035;-72
2022/01/19 12:10:07;;;;;;;16.30;5.28;;;;;;;5.77;100.00;101218.94;4945320;28;20043;-71
2022/01/19 12:12:43;;;;;;;13.77;4.60;;;;;;;5.95;99.34;101209.94;4944736;28;21349;-72
2022/01/19 12:15:52;;;;;;;10.48;4.47;;;;;;;5.85;98.97;101193.38;4943958;28;20105;-72
2022/01/19 12:18:39;;;;;;;15.07;4.97;;;;;;;5.79;99.21;101195.38;4949678;29;20403;-72
2022/01/19 12:21:05;;;;;;;10.35;4.88;;;;;;;6.04;97.71;101188.59;4946458;28;20039;-72
2022/01/19 12:23:34;;;;;;;20.25;4.72;;;;;;;5.93;97.99;101192.63;4950178;28;20377;-71
2022/01/19 12:26:00;;;;;;;12.73;4.03;;;;;;;5.72;98.82;101184.38;4928010;29;20043;-72
2022/01/19 12:28:54;;;;;;;13.48;5.40;;;;;;;5.74;99.06;101173.38;4947734;28;20708;-72
2022/01/19 12:31:22;;;;;;;9.10;4.63;;;;;;;5.90;99.80;101180.69;4946380;28;20067;-72
2022/01/19 12:34:19;;;;;;;13.52;4.95;;;;;;;5.90;99.51;101164.66;4948160;28;20039;-72
2022/01/19 12:36:51;;;;;;;8.18;4.05;;;;;;;5.96;98.45;101162.63;4941456;28;20087;-72
2022/01/19 12:39:26;;;;;;;11.30;4.93;;;;;;;5.94;98.67;101154.13;4956268;28;20039;-72
2022/01/19 12:42:16;;;;;;;11.43;5.05;;;;;;;5.89;99.16;101138.22;4952096;28;20051;-72
2022/01/19 12:44:43;;;;;;;12.82;5.22;;;;;;;5.96;98.58;101149.28;4945065;28;20052;-72
2022/01/19 12:47:29;;;;;;;21.08;4.70;;;;;;;6.11;98.23;101144.25;4947085;29;20085;-72
2022/01/19 12:50:21;;;;;;;11.05;4.80;;;;;;;6.11;97.68;101151.50;4937961;28;20548;-71
2022/01/19 12:53:15;;;;;;;10.65;5.10;;;;;;;6.09;97.42;101138.44;4941494;28;20047;-72
2022/01/19 12:55:43;;;;;;;12.65;5.03;;;;;;;6.13;97.63;101149.28;4936551;28;20054;-72
2022/01/19 12:58:16;;;;;;;17.52;5.75;;;;;;;6.05;97.73;101131.34;4949011;28;20039;-71
2022/01/19 13:00:46;;;;;;;18.77;5.90;;;;;;;5.96;99.01;101123.31;4949228;28;20448;-72
2022/01/19 13:03:15;;;;;;;11.60;5.00;;;;;;;6.00;98.15;101120.81;4949514;28;20043;-71
2022/01/19 13:05:50;;;;;;;14.65;6.32;;;;;;;6.05;98.77;101107.28;4941159;28;20530;-72
2022/01/19 13:08:24;;;;;;;17.30;5.15;;;;;;;6.06;98.03;101108.84;4944324;28;20070;-72
2022/01/19 13:10:52;;;;;;;15.95;5.50;;;;;;;6.11;98.46;101100.69;4935847;28;20043;-72
2022/01/19 13:15:55;;;;;;;11.20;5.30;;;;;;;5.89;99.37;101092.81;4933628;28;20051;-72
2022/01/19 13:18:37;;;;;;;15.43;5.65;;;;;;;5.91;99.82;101075.38;4948910;28;20039;-72